Ludlow, Missouri
Current Conditions -  °F | °C
As of 10:35 AM on Wednesday 26 Nov 2014 (Local Time) from KGPH Reporting Station
Overcast Overcast  
Wind Chill: 33°   Ceiling: 3200
Heat Index: 41°   Visibility: 10mi
Dew Point: 32°   Wind: 15mph
Humidity: 70%   Direction: 280°W
Pressure: 29.97"   Gusts: 21mph
Location:  39.66°N, 93.7°W
Report Text: KGPH 261635Z AUTO 28013G18KT 10SM OVC032 05/00 A2997 RMK AO2
Loading
Personal Weather Stations






























Interactive Weather Map New forecast layout! Learn more

10-Day Weather Forecast

Advertisements
Track Severe Weather on mobile